createdAt,value
2022-10-23T00:01:16.855Z,97.29
2022-10-23T00:03:44.606Z,97.32
2022-10-23T00:06:12.467Z,97.42
2022-10-23T00:08:39.826Z,97.33
2022-10-23T00:11:11.440Z,97.02
2022-10-23T00:13:38.671Z,97.10
2022-10-23T00:16:05.844Z,97.30
2022-10-23T00:18:33.140Z,97.30
2022-10-23T00:21:00.133Z,97.37
2022-10-23T00:23:26.869Z,97.12
2022-10-23T00:25:53.510Z,97.26
2022-10-23T00:28:22.719Z,97.36
2022-10-23T00:30:49.536Z,97.60
2022-10-23T00:33:16.430Z,97.42
2022-10-23T00:35:43.317Z,97.67
2022-10-23T00:38:13.002Z,97.89
2022-10-23T00:40:44.064Z,98.14
2022-10-23T00:43:26.354Z,98.01
2022-10-23T00:45:55.486Z,97.74
2022-10-23T00:48:22.651Z,97.81
2022-10-23T00:50:50.157Z,98.14
2022-10-23T00:53:18.962Z,98.22
2022-10-23T00:55:48.972Z,98.23
2022-10-23T00:58:18.506Z,98.43
2022-10-23T01:00:48.697Z,98.09
2022-10-23T01:03:18.238Z,98.48
2022-10-23T01:05:51.783Z,98.64
2022-10-23T01:08:28.670Z,98.39
2022-10-23T01:11:12.560Z,98.80
2022-10-23T01:16:50.850Z,98.52
2022-10-23T01:19:43.604Z,98.64
2022-10-23T01:25:03.063Z,98.69
2022-10-23T01:27:39.944Z,99.18
2022-10-23T01:30:09.748Z,99.56
2022-10-23T01:32:51.058Z,99.17
2022-10-23T01:35:24.851Z,99.46
2022-10-23T01:38:14.376Z,99.13
2022-10-23T01:40:53.388Z,99.54
2022-10-23T01:43:35.244Z,99.54
2022-10-23T01:46:06.555Z,99.44
2022-10-23T01:48:36.509Z,99.58
2022-10-23T01:51:09.793Z,99.62
2022-10-23T01:53:41.609Z,99.52
2022-10-23T01:56:12.098Z,100.00
2022-10-23T01:58:42.574Z,100.00
2022-10-23T02:01:12.741Z,99.85
2022-10-23T02:03:42.715Z,99.93
2022-10-23T02:06:09.584Z,100.00
2022-10-23T02:08:38.531Z,99.63
2022-10-23T02:11:12.789Z,100.00
2022-10-23T02:14:11.765Z,99.96
2022-10-23T02:16:53.472Z,100.00
2022-10-23T02:19:29.302Z,99.89
2022-10-23T02:22:11.067Z,100.00
2022-10-23T02:24:43.335Z,100.00
2022-10-23T02:27:19.174Z,100.00
2022-10-23T02:29:52.237Z,100.00
2022-10-23T02:32:22.462Z,100.00
2022-10-23T02:34:52.163Z,100.00
2022-10-23T02:39:55.389Z,100.00
2022-10-23T02:42:41.243Z,100.00
2022-10-23T02:45:16.813Z,100.00
2022-10-23T02:48:34.075Z,100.00
2022-10-23T02:51:07.882Z,100.00
2022-10-23T02:53:43.290Z,100.00
2022-10-23T02:56:23.055Z,100.00
2022-10-23T02:59:11.463Z,100.00
2022-10-23T03:02:02.827Z,100.00
2022-10-23T03:04:31.757Z,100.00
2022-10-23T03:06:58.509Z,100.00
2022-10-23T03:09:26.882Z,100.00
2022-10-23T03:11:56.232Z,100.00
2022-10-23T03:14:22.883Z,100.00
2022-10-23T03:16:49.688Z,100.00
2022-10-23T03:19:16.407Z,100.00
2022-10-23T03:21:43.171Z,100.00
2022-10-23T03:24:09.916Z,100.00
2022-10-23T03:26:36.592Z,100.00
2022-10-23T03:29:03.252Z,100.00
2022-10-23T03:31:29.849Z,100.00
2022-10-23T03:33:56.385Z,100.00
2022-10-23T03:36:22.965Z,100.00
2022-10-23T03:38:50.986Z,100.00
2022-10-23T03:41:17.573Z,100.00
2022-10-23T03:43:44.145Z,100.00
2022-10-23T03:46:12.884Z,100.00
2022-10-23T03:48:39.635Z,100.00
2022-10-23T03:51:06.614Z,100.00
2022-10-23T03:53:33.390Z,100.00
2022-10-23T03:56:02.572Z,100.00
2022-10-23T03:58:29.258Z,100.00
2022-10-23T04:00:56.099Z,100.00
2022-10-23T04:03:23.088Z,100.00
2022-10-23T04:05:52.224Z,100.00
2022-10-23T04:08:20.173Z,100.00
2022-10-23T04:10:46.974Z,100.00
2022-10-23T04:13:13.732Z,100.00
2022-10-23T04:15:47.491Z,100.00
2022-10-23T04:18:14.184Z,100.00
2022-10-23T04:20:40.914Z,100.00
2022-10-23T04:23:07.597Z,100.00
2022-10-23T04:25:34.315Z,100.00
2022-10-23T04:28:01.135Z,100.00
2022-10-23T04:30:27.771Z,100.00
2022-10-23T04:32:54.449Z,100.00
2022-10-23T04:35:20.972Z,100.00
2022-10-23T04:37:47.706Z,100.00
2022-10-23T04:40:14.371Z,100.00
2022-10-23T04:42:41.327Z,100.00
2022-10-23T04:45:08.454Z,100.00
2022-10-23T04:47:35.090Z,100.00
2022-10-23T04:50:02.299Z,100.00
2022-10-23T04:52:28.986Z,100.00
2022-10-23T04:54:55.685Z,100.00
2022-10-23T04:57:22.414Z,100.00
2022-10-23T04:59:49.090Z,100.00
2022-10-23T05:02:18.909Z,100.00
2022-10-23T05:04:46.549Z,100.00
2022-10-23T05:07:16.554Z,100.00
2022-10-23T05:09:43.371Z,100.00
2022-10-23T05:12:10.220Z,100.00
2022-10-23T05:14:36.840Z,100.00
2022-10-23T05:17:14.376Z,100.00
2022-10-23T05:19:45.402Z,100.00
2022-10-23T05:22:13.496Z,100.00
2022-10-23T05:24:40.494Z,100.00
2022-10-23T05:27:10.338Z,100.00
2022-10-23T05:29:36.970Z,100.00
2022-10-23T05:32:11.757Z,100.00
2022-10-23T05:34:40.329Z,100.00
2022-10-23T05:37:10.726Z,100.00
2022-10-23T05:39:37.829Z,100.00
2022-10-23T05:42:04.816Z,100.00
2022-10-23T05:44:33.250Z,100.00
2022-10-23T05:46:59.978Z,100.00
2022-10-23T05:49:26.787Z,100.00
2022-10-23T05:51:53.541Z,100.00
2022-10-23T05:54:20.253Z,100.00
2022-10-23T05:56:47.054Z,100.00
2022-10-23T05:59:13.794Z,100.00
2022-10-23T06:01:40.655Z,100.00
2022-10-23T06:04:07.569Z,100.00
2022-10-23T06:06:37.490Z,100.00
2022-10-23T06:09:05.199Z,100.00
2022-10-23T06:11:31.932Z,100.00
2022-10-23T06:14:00.905Z,100.00
2022-10-23T06:16:28.117Z,100.00
2022-10-23T06:18:55.354Z,100.00
2022-10-23T06:21:22.373Z,100.00
2022-10-23T06:23:49.297Z,100.00
2022-10-23T06:26:18.415Z,100.00
2022-10-23T06:28:47.393Z,100.00
2022-10-23T06:31:19.269Z,100.00
2022-10-23T06:33:52.572Z,100.00
2022-10-23T06:36:19.513Z,100.00
2022-10-23T06:38:46.317Z,100.00
2022-10-23T06:41:19.254Z,100.00
2022-10-23T06:43:49.702Z,100.00
2022-10-23T06:46:18.073Z,100.00
2022-10-23T06:48:45.271Z,100.00
2022-10-23T06:51:14.173Z,100.00
2022-10-23T06:53:40.945Z,100.00
2022-10-23T06:56:08.908Z,100.00
2022-10-23T06:58:37.668Z,100.00
2022-10-23T07:01:07.978Z,100.00
2022-10-23T07:03:35.245Z,100.00
2022-10-23T07:06:03.581Z,100.00
2022-10-23T07:08:30.482Z,99.56
2022-10-23T07:10:57.471Z,98.98
2022-10-23T07:13:25.022Z,98.66
2022-10-23T07:15:54.042Z,99.01
2022-10-23T07:18:21.179Z,98.82
2022-10-23T07:20:49.630Z,98.46
2022-10-23T07:23:18.511Z,98.05
2022-10-23T07:25:45.428Z,98.58
2022-10-23T07:28:12.516Z,97.76
2022-10-23T07:30:41.080Z,97.48
2022-10-23T07:33:12.550Z,97.30
2022-10-23T07:35:41.145Z,96.61
2022-10-23T07:38:08.196Z,96.62
2022-10-23T07:40:38.287Z,96.68
2022-10-23T07:43:05.564Z,96.98
2022-10-23T07:45:33.650Z,95.88
2022-10-23T07:48:00.485Z,95.35
2022-10-23T07:50:27.251Z,95.65
2022-10-23T07:52:54.950Z,96.15
2022-10-23T07:55:24.887Z,95.59
2022-10-23T07:57:51.731Z,95.84
2022-10-23T08:00:18.698Z,95.86
2022-10-23T08:02:45.525Z,95.70
2022-10-23T08:05:12.465Z,94.59
2022-10-23T08:07:40.700Z,94.25
2022-10-23T08:10:07.932Z,93.58
2022-10-23T08:12:37.303Z,93.67
2022-10-23T08:15:04.598Z,93.00
2022-10-23T08:17:33.466Z,91.64
2022-10-23T08:20:00.383Z,91.98
2022-10-23T08:22:27.313Z,92.08
2022-10-23T08:24:54.362Z,92.18
2022-10-23T08:27:23.941Z,92.19
2022-10-23T08:29:50.687Z,92.38
2022-10-23T08:32:17.446Z,90.24
2022-10-23T08:34:44.119Z,91.19
2022-10-23T08:37:10.853Z,90.28
2022-10-23T08:39:39.754Z,89.98
2022-10-23T08:42:06.653Z,90.78
2022-10-23T08:45:03.374Z,88.66
2022-10-23T08:47:42.771Z,88.45
2022-10-23T08:53:25.623Z,88.46
2022-10-23T08:56:06.898Z,87.65
2022-10-23T08:58:46.175Z,86.33
2022-10-23T09:01:36.691Z,87.38
2022-10-23T09:04:04.432Z,86.09
2022-10-23T09:06:40.390Z,86.29
2022-10-23T09:09:36.300Z,86.39
2022-10-23T09:12:14.005Z,85.69
2022-10-23T09:14:40.556Z,84.74
2022-10-23T09:17:26.323Z,84.62
2022-10-23T09:20:25.937Z,83.61
2022-10-23T09:23:20.875Z,84.79
2022-10-23T09:25:51.908Z,84.93
2022-10-23T09:28:26.061Z,83.33
2022-10-23T09:30:53.336Z,81.56
2022-10-23T09:33:22.210Z,79.25
2022-10-23T09:35:56.663Z,80.50
2022-10-23T09:38:36.178Z,79.57
2022-10-23T09:41:27.711Z,78.42
2022-10-23T09:44:20.407Z,78.72
2022-10-23T09:47:08.932Z,78.52
2022-10-23T09:49:35.876Z,77.68
2022-10-23T09:52:04.866Z,77.66
2022-10-23T09:54:54.337Z,74.63
2022-10-23T09:57:28.452Z,75.40
2022-10-23T10:00:01.416Z,74.79
2022-10-23T10:02:34.486Z,74.21
2022-10-23T10:05:32.031Z,71.93
2022-10-23T10:08:24.719Z,70.99
2022-10-23T10:11:07.043Z,71.11
2022-10-23T10:13:33.672Z,70.55
2022-10-23T10:16:07.080Z,70.86
2022-10-23T10:18:43.297Z,68.25
2022-10-23T10:21:27.915Z,66.22
2022-10-23T10:24:08.562Z,68.00
2022-10-23T10:26:52.206Z,67.68
2022-10-23T10:29:25.746Z,66.04
2022-10-23T10:31:58.387Z,68.39
2022-10-23T10:34:54.143Z,65.52
2022-10-23T10:37:58.355Z,66.40
2022-10-23T10:40:31.543Z,66.03
2022-10-23T10:43:23.118Z,64.41
2022-10-23T10:46:00.986Z,64.42
2022-10-23T10:48:37.578Z,63.30
2022-10-23T10:51:08.416Z,62.68
2022-10-23T10:54:02.837Z,60.43
2022-10-23T10:56:33.482Z,60.23
2022-10-23T10:59:04.797Z,60.76
2022-10-23T11:02:23.527Z,58.21
2022-10-23T11:11:52.486Z,59.33
2022-10-23T11:14:51.463Z,57.00
2022-10-23T11:18:33.038Z,57.11
2022-10-23T11:21:50.073Z,56.47
2022-10-23T11:24:58.160Z,56.53
2022-10-23T11:28:47.289Z,55.74
2022-10-23T11:31:22.940Z,55.30
2022-10-23T11:34:04.383Z,55.90
2022-10-23T11:36:57.542Z,56.08
2022-10-23T11:40:06.337Z,53.86
2022-10-23T11:43:17.550Z,53.71
2022-10-23T11:46:02.622Z,56.02
2022-10-23T11:48:40.021Z,56.87
2022-10-23T11:51:31.006Z,56.40
2022-10-23T11:54:07.662Z,54.71
2022-10-23T11:57:03.208Z,56.30
2022-10-23T11:59:36.011Z,54.98
2022-10-23T12:02:28.015Z,55.85
2022-10-23T12:04:56.592Z,55.72
2022-10-23T12:07:45.268Z,54.59
2022-10-23T12:10:41.351Z,56.45
2022-10-23T12:13:49.901Z,56.81
2022-10-23T12:17:02.315Z,57.61
2022-10-23T12:19:49.889Z,55.54
2022-10-23T12:23:01.809Z,55.52
2022-10-23T12:26:06.111Z,55.83
2022-10-23T12:33:31.708Z,56.97
2022-10-23T12:53:11.864Z,56.03
2022-10-23T12:57:35.334Z,55.86
2022-10-23T13:01:04.006Z,55.77
2022-10-23T13:03:53.569Z,57.21
2022-10-23T13:07:06.173Z,56.29
2022-10-23T13:09:50.035Z,57.12
2022-10-23T13:12:27.232Z,56.95
2022-10-23T13:15:01.974Z,57.98
2022-10-23T13:17:42.270Z,57.13
2022-10-23T13:20:18.486Z,57.50
2022-10-23T13:22:54.186Z,57.55
2022-10-23T13:25:28.435Z,57.80
2022-10-23T13:28:23.085Z,57.79
2022-10-23T13:31:00.703Z,58.60
2022-10-23T13:33:35.329Z,58.24
2022-10-23T13:36:23.800Z,59.17
2022-10-23T13:38:59.958Z,58.49
2022-10-23T13:41:31.286Z,58.71
2022-10-23T13:43:58.090Z,58.58
2022-10-23T13:46:28.196Z,58.64
2022-10-23T13:48:55.027Z,59.17
2022-10-23T13:51:27.559Z,58.74
2022-10-23T13:53:55.661Z,59.27
2022-10-23T13:56:24.245Z,58.84
2022-10-23T13:58:51.131Z,58.31
2022-10-23T14:01:28.430Z,59.34
2022-10-23T14:03:57.304Z,58.81
2022-10-23T14:06:24.340Z,58.90
2022-10-23T14:08:51.439Z,58.39
2022-10-23T14:11:19.872Z,58.97
2022-10-23T14:13:48.926Z,59.12
2022-10-23T14:16:20.252Z,59.51
2022-10-23T14:18:50.668Z,59.55
2022-10-23T14:21:21.993Z,59.84
2022-10-23T14:23:50.405Z,60.06
2022-10-23T14:26:20.380Z,59.50
2022-10-23T14:28:53.387Z,60.03
2022-10-23T14:31:21.113Z,60.10
2022-10-23T14:33:53.407Z,60.22
2022-10-23T14:36:20.262Z,60.14
2022-10-23T14:38:47.200Z,60.04
2022-10-23T14:41:16.753Z,60.34
2022-10-23T14:43:44.033Z,60.65
2022-10-23T14:46:16.101Z,60.53
2022-10-23T14:48:46.209Z,61.25
2022-10-23T14:51:21.179Z,61.33
2022-10-23T14:53:49.530Z,61.94
2022-10-23T14:56:16.508Z,62.06
2022-10-23T14:58:44.550Z,62.19
2022-10-23T15:01:14.758Z,61.66
2022-10-23T15:03:43.776Z,61.98
2022-10-23T15:06:11.814Z,61.48
2022-10-23T15:08:40.449Z,62.06
2022-10-23T15:11:12.592Z,61.74
2022-10-23T15:13:39.536Z,61.77
2022-10-23T15:16:09.327Z,61.98
2022-10-23T15:21:08.977Z,62.93
2022-10-23T15:23:38.256Z,63.28
2022-10-23T15:26:08.852Z,63.92
2022-10-23T15:28:35.801Z,64.46
2022-10-23T15:31:05.402Z,64.37
2022-10-23T15:33:32.168Z,64.46
2022-10-23T15:35:58.836Z,64.62
2022-10-23T15:38:26.115Z,64.78
2022-10-23T15:41:03.911Z,64.83
2022-10-23T15:43:30.714Z,65.66
2022-10-23T15:45:59.745Z,65.56
2022-10-23T15:48:26.578Z,66.02
2022-10-23T15:50:53.377Z,66.13
2022-10-23T15:53:20.308Z,66.55
2022-10-23T15:55:49.510Z,67.08
2022-10-23T15:58:20.819Z,67.03
2022-10-23T16:00:50.055Z,67.39
2022-10-23T16:03:16.753Z,68.01
2022-10-23T16:05:46.610Z,68.19
2022-10-23T16:08:13.343Z,68.39
2022-10-23T16:10:43.420Z,68.33
2022-10-23T16:13:10.220Z,68.24
2022-10-23T16:15:38.307Z,68.74
2022-10-23T16:18:07.193Z,69.42
2022-10-23T16:20:33.849Z,69.05
2022-10-23T16:23:00.603Z,70.13
2022-10-23T16:25:27.530Z,69.96
2022-10-23T16:27:54.893Z,70.17
2022-10-23T16:30:22.982Z,70.23
2022-10-23T16:32:50.773Z,70.60
2022-10-23T16:35:17.614Z,71.17
2022-10-23T16:37:44.670Z,70.98
2022-10-23T16:40:11.926Z,71.36
2022-10-23T16:42:40.403Z,71.97
2022-10-23T16:45:08.358Z,72.02
2022-10-23T16:47:37.528Z,71.84
2022-10-23T16:50:04.502Z,72.00
2022-10-23T16:52:31.239Z,72.02
2022-10-23T16:55:01.928Z,72.70
2022-10-23T16:57:28.717Z,72.96
2022-10-23T16:59:55.535Z,72.90
2022-10-23T17:02:22.498Z,73.22
2022-10-23T17:04:49.453Z,73.29
2022-10-23T17:07:18.615Z,73.72
2022-10-23T17:09:46.729Z,73.62
2022-10-23T17:12:14.189Z,73.30
2022-10-23T17:14:40.961Z,74.10
2022-10-23T17:17:09.726Z,74.99
2022-10-23T17:19:45.229Z,75.20
2022-10-23T17:22:13.346Z,74.10
2022-10-23T17:24:41.869Z,74.99
2022-10-23T17:27:11.765Z,74.38
2022-10-23T17:29:38.586Z,75.20
2022-10-23T17:32:06.037Z,75.30
2022-10-23T17:34:32.917Z,75.63
2022-10-23T17:36:59.591Z,75.89
2022-10-23T17:39:29.315Z,74.90
2022-10-23T17:41:57.068Z,76.32
2022-10-23T17:44:23.958Z,75.80
2022-10-23T17:46:59.539Z,75.91
2022-10-23T17:49:27.325Z,76.23
2022-10-23T17:51:57.275Z,76.70
2022-10-23T17:54:27.676Z,77.46
2022-10-23T17:56:54.538Z,76.92
2022-10-23T17:59:24.120Z,77.25
2022-10-23T18:01:51.091Z,77.41
2022-10-23T18:04:19.769Z,78.50
2022-10-23T18:06:52.486Z,77.45
2022-10-23T18:09:20.336Z,77.89
2022-10-23T18:11:48.404Z,78.09
2022-10-23T18:14:17.746Z,79.18
2022-10-23T18:16:45.881Z,78.05
2022-10-23T18:19:14.177Z,78.54
2022-10-23T18:21:40.891Z,77.90
2022-10-23T18:24:07.737Z,78.25
2022-10-23T18:26:39.905Z,78.81
2022-10-23T18:29:07.629Z,79.71
2022-10-23T18:31:37.177Z,78.91
2022-10-23T18:34:14.903Z,78.70
2022-10-23T18:36:44.352Z,79.29
2022-10-23T18:39:14.836Z,79.07
2022-10-23T18:41:43.860Z,79.30
2022-10-23T18:44:19.227Z,78.96
2022-10-23T18:46:47.512Z,79.13
2022-10-23T18:49:14.760Z,79.80
2022-10-23T18:51:41.532Z,80.02
2022-10-23T18:54:12.815Z,79.68
2022-10-23T18:56:39.893Z,80.16
2022-10-23T18:59:10.186Z,80.58
2022-10-23T19:01:39.682Z,80.95
2022-10-23T19:04:07.303Z,80.87
2022-10-23T19:06:36.189Z,80.64
2022-10-23T19:09:04.834Z,81.31
2022-10-23T19:11:31.536Z,81.31
2022-10-23T19:13:58.366Z,81.54
2022-10-23T19:16:25.078Z,81.32
2022-10-23T19:19:07.123Z,81.38
2022-10-23T19:21:37.978Z,81.62
2022-10-23T19:24:12.240Z,81.45
2022-10-23T19:26:42.670Z,81.60
2022-10-23T19:29:11.365Z,82.12
2022-10-23T19:31:38.129Z,81.79
2022-10-23T19:34:04.825Z,81.43
2022-10-23T19:36:31.941Z,81.68
2022-10-23T19:39:01.000Z,81.83
2022-10-23T19:41:32.797Z,81.62
2022-10-23T19:43:59.455Z,81.41
2022-10-23T19:46:27.094Z,82.15
2022-10-23T19:48:56.397Z,82.10
2022-10-23T19:51:25.386Z,81.87
2022-10-23T19:53:54.634Z,81.98
2022-10-23T19:56:21.881Z,81.57
2022-10-23T19:58:50.272Z,83.30
2022-10-23T20:01:21.631Z,82.56
2022-10-23T20:03:50.304Z,82.90
2022-10-23T20:06:21.374Z,84.00
2022-10-23T20:08:48.729Z,84.11
2022-10-23T20:11:20.237Z,83.88
2022-10-23T20:13:48.491Z,83.89
2022-10-23T20:16:20.768Z,84.03
2022-10-23T20:18:48.027Z,83.68
2022-10-23T20:21:15.410Z,84.24
2022-10-23T20:23:42.256Z,84.01
2022-10-23T20:26:18.387Z,84.64
2022-10-23T20:28:54.374Z,83.95
2022-10-23T20:31:24.148Z,84.00
2022-10-23T20:33:54.164Z,83.88
2022-10-23T20:36:35.583Z,83.83
2022-10-23T20:39:08.127Z,84.05
2022-10-23T20:41:37.262Z,83.60
2022-10-23T20:44:06.225Z,84.03
2022-10-23T20:46:33.144Z,83.83
2022-10-23T20:49:00.153Z,84.11
2022-10-23T20:51:27.044Z,83.90
2022-10-23T20:53:54.724Z,84.09
2022-10-23T20:56:31.261Z,84.41
2022-10-23T20:59:10.941Z,84.39
2022-10-23T21:01:40.872Z,84.19
2022-10-23T21:04:07.742Z,84.15
2022-10-23T21:06:51.931Z,84.18
2022-10-23T21:09:30.355Z,83.72
2022-10-23T21:11:57.099Z,84.87
2022-10-23T21:14:23.718Z,84.02
2022-10-23T21:16:50.339Z,84.66
2022-10-23T21:19:19.373Z,84.80
2022-10-23T21:21:45.977Z,84.55
2022-10-23T21:24:16.023Z,85.20
2022-10-23T21:26:43.241Z,85.36
2022-10-23T21:29:18.660Z,85.31
2022-10-23T21:31:54.095Z,86.09
2022-10-23T21:34:20.864Z,86.12
2022-10-23T21:37:10.815Z,86.15
2022-10-23T21:39:34.404Z,86.24
2022-10-23T21:42:01.373Z,86.37
2022-10-23T21:44:28.207Z,86.09
2022-10-23T21:46:55.376Z,86.41
2022-10-23T21:49:22.093Z,86.47
2022-10-23T21:51:48.798Z,86.16
2022-10-23T21:54:15.589Z,85.83
2022-10-23T21:56:48.174Z,86.18
2022-10-23T21:59:17.938Z,86.32
2022-10-23T22:01:46.534Z,86.56
2022-10-23T22:04:15.433Z,86.94
2022-10-23T22:06:43.095Z,86.70
2022-10-23T22:09:12.466Z,86.98
2022-10-23T22:11:42.201Z,86.88
2022-10-23T22:14:08.864Z,87.14
2022-10-23T22:16:35.640Z,86.92
2022-10-23T22:19:02.986Z,86.76
2022-10-23T22:21:33.321Z,86.77
2022-10-23T22:24:01.059Z,86.53
2022-10-23T22:26:38.171Z,87.29
2022-10-23T22:29:08.135Z,87.11
2022-10-23T22:31:36.438Z,86.60
2022-10-23T22:34:13.339Z,86.83
2022-10-23T22:36:51.763Z,86.21
2022-10-23T22:39:18.932Z,85.71
2022-10-23T22:41:46.538Z,85.36
2022-10-23T22:44:14.862Z,85.35
2022-10-23T22:46:42.263Z,85.20
2022-10-23T22:49:09.465Z,84.96
2022-10-23T22:51:38.826Z,84.79
2022-10-23T22:54:05.810Z,84.06
2022-10-23T22:56:32.946Z,83.51
2022-10-23T22:58:59.739Z,83.20
2022-10-23T23:05:12.017Z,82.66
2022-10-23T23:07:38.674Z,82.53
2022-10-23T23:10:05.815Z,82.27
2022-10-23T23:12:32.556Z,82.07
2022-10-23T23:15:00.306Z,81.71
2022-10-23T23:21:28.224Z,81.59
2022-10-23T23:23:56.805Z,80.88
2022-10-23T23:26:23.868Z,81.34
2022-10-23T23:28:54.633Z,80.64
2022-10-23T23:31:25.286Z,79.99
2022-10-23T23:33:53.079Z,79.34
2022-10-23T23:36:23.226Z,79.56
2022-10-23T23:38:52.972Z,79.67
2022-10-23T23:41:21.314Z,80.12
2022-10-23T23:43:48.707Z,79.82
2022-10-23T23:46:16.548Z,79.33
2022-10-23T23:48:47.711Z,79.58
2022-10-23T23:51:16.259Z,79.91
2022-10-23T23:53:43.422Z,80.43
2022-10-23T23:56:13.201Z,80.65
2022-10-23T23:58:40.089Z,80.57
